CCM225 LFPO-LFKC
Flight info
| Callsign | CCM225 |
|---|---|
| Flight time | 1h 18m |
| Altitude | 35000 |
| Route | LATRA DCT LAMUT DCT UTUVA DCT TITVA DCT NOQAS DCT OTROT DCT RETNO DCT KOLON DCT NARTI UP991 NIRDO |
| Aircraft | A320/M-SDE3FGHIRWY/LB1 |
Departure
| Time | 2026-04-24 05:35 |
|---|---|
| Airport | Paris-Orly Airport (LFPO) |
Arrival
| Time | 2026-04-24 06:54 |
|---|---|
| Airport | Calvi Sainte Catherine Airport (LFKC) |
| Time | Latitude | Longitude | Altitude | Speed | Heading |
|---|---|---|---|---|---|
| 2026-04-24 04:26 | 48.72621 | 2.35804 | 293 ft | 0 kts | 75° |
| 2026-04-24 05:16 | 48.72618 | 2.35783 | 295 ft | 4 kts | 75° |
| 2026-04-24 05:17 | 48.72611 | 2.35743 | 292 ft | 4 kts | 76° |
| 2026-04-24 05:17 | 48.72606 | 2.35712 | 293 ft | 4 kts | 78° |
| 2026-04-24 05:17 | 48.72604 | 2.35674 | 296 ft | 4 kts | 118° |
| 2026-04-24 05:17 | 48.72621 | 2.35657 | 297 ft | 4 kts | 165° |
| 2026-04-24 05:18 | 48.72627 | 2.35654 | 295 ft | 0 kts | 165° |
| 2026-04-24 05:20 | 48.72621 | 2.35652 | 295 ft | 1 kts | 197° |
| 2026-04-24 05:20 | 48.72607 | 2.35634 | 295 ft | 3 kts | 234° |
| 2026-04-24 05:21 | 48.72602 | 2.35604 | 294 ft | 3 kts | 252° |
| 2026-04-24 05:21 | 48.72597 | 2.35583 | 294 ft | 2 kts | 252° |
| 2026-04-24 05:21 | 48.72583 | 2.35551 | 295 ft | 2 kts | 182° |
| 2026-04-24 05:21 | 48.72581 | 2.35553 | 295 ft | 0 kts | 165° |
| 2026-04-24 05:24 | 48.72532 | 2.35574 | 295 ft | 11 kts | 165° |
| 2026-04-24 05:25 | 48.72466 | 2.35601 | 292 ft | 9 kts | 165° |
| 2026-04-24 05:25 | 48.72409 | 2.35624 | 296 ft | 8 kts | 165° |
| 2026-04-24 05:25 | 48.72359 | 2.35643 | 292 ft | 7 kts | 171° |
| 2026-04-24 05:25 | 48.72317 | 2.35635 | 292 ft | 6 kts | 200° |
| 2026-04-24 05:26 | 48.72284 | 2.35615 | 296 ft | 5 kts | 201° |
| 2026-04-24 05:26 | 48.72256 | 2.35599 | 292 ft | 4 kts | 198° |
| 2026-04-24 05:26 | 48.72235 | 2.35602 | 292 ft | 3 kts | 168° |
| 2026-04-24 05:26 | 48.72208 | 2.35611 | 294 ft | 5 kts | 168° |
| 2026-04-24 05:27 | 48.72179 | 2.35620 | 294 ft | 4 kts | 168° |
| 2026-04-24 05:27 | 48.72156 | 2.35628 | 292 ft | 3 kts | 168° |
| 2026-04-24 05:27 | 48.72154 | 2.35629 | 292 ft | 0 kts | 168° |
| 2026-04-24 05:33 | 48.72153 | 2.35629 | 292 ft | 1 kts | 168° |
| 2026-04-24 05:34 | 48.72026 | 2.35763 | 296 ft | 12 kts | 114° |
| 2026-04-24 05:34 | 48.71988 | 2.35867 | 293 ft | 10 kts | 120° |
| 2026-04-24 05:34 | 48.71969 | 2.36009 | 293 ft | 18 kts | 83° |
| 2026-04-24 05:34 | 48.72045 | 2.36391 | 298 ft | 71 kts | 73° |
| 2026-04-24 05:35 | 48.72239 | 2.37436 | 293 ft | 132 kts | 74° |
| 2026-04-24 05:35 | 48.72549 | 2.38976 | 468 ft | 163 kts | 71° |
| 2026-04-24 05:35 | 48.72869 | 2.40639 | 1126 ft | 164 kts | 73° |
| 2026-04-24 05:35 | 48.73169 | 2.42297 | 1928 ft | 162 kts | 76° |
| 2026-04-24 05:36 | 48.73477 | 2.44021 | 2465 ft | 177 kts | 77° |
| 2026-04-24 05:36 | 48.73819 | 2.45941 | 2797 ft | 201 kts | 76° |
| 2026-04-24 05:36 | 48.74102 | 2.48136 | 3219 ft | 224 kts | 84° |
| 2026-04-24 05:36 | 48.74229 | 2.50606 | 3764 ft | 244 kts | 87° |
| 2026-04-24 05:37 | 48.74304 | 2.53207 | 4619 ft | 250 kts | 87° |
| 2026-04-24 05:37 | 48.74330 | 2.55855 | 5490 ft | 254 kts | 96° |
| 2026-04-24 05:37 | 48.73642 | 2.58329 | 6335 ft | 264 kts | 130° |
| 2026-04-24 05:37 | 48.72114 | 2.59921 | 7155 ft | 273 kts | 154° |
| 2026-04-24 05:38 | 48.70287 | 2.60823 | 7981 ft | 279 kts | 163° |
| 2026-04-24 05:38 | 48.68374 | 2.61477 | 8817 ft | 284 kts | 166° |
| 2026-04-24 05:38 | 48.66421 | 2.62082 | 9642 ft | 289 kts | 170° |
| 2026-04-24 05:38 | 48.64385 | 2.62113 | 10112 ft | 296 kts | 186° |
| 2026-04-24 05:39 | 48.62387 | 2.61340 | 10277 ft | 299 kts | 201° |
| 2026-04-24 05:39 | 48.60449 | 2.59885 | 10534 ft | 323 kts | 206° |
| 2026-04-24 05:39 | 48.58380 | 2.58276 | 10771 ft | 346 kts | 206° |
| 2026-04-24 05:39 | 48.56178 | 2.56582 | 11129 ft | 362 kts | 206° |
| 2026-04-24 05:40 | 48.53913 | 2.54842 | 11784 ft | 367 kts | 206° |
| 2026-04-24 05:40 | 48.51626 | 2.53086 | 12517 ft | 371 kts | 206° |
| 2026-04-24 05:40 | 48.49317 | 2.51315 | 13237 ft | 374 kts | 206° |
| 2026-04-24 05:40 | 48.46990 | 2.49536 | 13959 ft | 377 kts | 204° |
| 2026-04-24 05:41 | 48.44545 | 2.48104 | 14597 ft | 378 kts | 195° |
| 2026-04-24 05:41 | 48.42021 | 2.46951 | 15238 ft | 381 kts | 195° |
| 2026-04-24 05:41 | 48.39475 | 2.45792 | 15868 ft | 384 kts | 195° |
| 2026-04-24 05:41 | 48.36908 | 2.44627 | 16492 ft | 387 kts | 195° |
| 2026-04-24 05:42 | 48.34322 | 2.43454 | 17117 ft | 390 kts | 195° |
| 2026-04-24 05:42 | 48.31700 | 2.42395 | 17733 ft | 391 kts | 188° |
| 2026-04-24 05:42 | 48.28990 | 2.42016 | 18333 ft | 392 kts | 178° |
| 2026-04-24 05:42 | 48.26273 | 2.42397 | 18885 ft | 393 kts | 167° |
| 2026-04-24 05:43 | 48.23646 | 2.43526 | 19431 ft | 394 kts | 159° |
| 2026-04-24 05:43 | 48.21061 | 2.44922 | 19995 ft | 396 kts | 159° |
| 2026-04-24 05:43 | 48.18463 | 2.46312 | 20544 ft | 397 kts | 159° |
| 2026-04-24 05:43 | 48.15854 | 2.47695 | 21076 ft | 399 kts | 159° |
| 2026-04-24 05:44 | 48.13230 | 2.49078 | 21601 ft | 401 kts | 159° |
| 2026-04-24 05:44 | 48.10596 | 2.50468 | 22106 ft | 402 kts | 159° |
| 2026-04-24 05:44 | 48.07951 | 2.51867 | 22606 ft | 404 kts | 159° |
| 2026-04-24 05:44 | 48.05285 | 2.53237 | 23085 ft | 406 kts | 160° |
| 2026-04-24 05:45 | 48.02602 | 2.54571 | 23551 ft | 408 kts | 160° |
| 2026-04-24 05:45 | 47.99897 | 2.55890 | 23968 ft | 409 kts | 160° |
| 2026-04-24 05:45 | 47.97183 | 2.57205 | 24335 ft | 411 kts | 160° |
| 2026-04-24 05:45 | 47.94455 | 2.58525 | 24686 ft | 413 kts | 160° |
| 2026-04-24 05:46 | 47.91714 | 2.59857 | 25026 ft | 415 kts | 160° |
| 2026-04-24 05:46 | 47.88965 | 2.61202 | 25372 ft | 417 kts | 160° |
| 2026-04-24 05:46 | 47.86203 | 2.62556 | 25700 ft | 419 kts | 160° |
| 2026-04-24 05:46 | 47.83428 | 2.63916 | 26029 ft | 421 kts | 160° |
| 2026-04-24 05:47 | 47.80639 | 2.65285 | 26352 ft | 423 kts | 160° |
| 2026-04-24 05:47 | 47.77839 | 2.66659 | 26667 ft | 425 kts | 160° |
| 2026-04-24 05:47 | 47.75028 | 2.68036 | 26972 ft | 426 kts | 160° |
| 2026-04-24 05:47 | 47.72205 | 2.69415 | 27265 ft | 428 kts | 160° |
| 2026-04-24 05:48 | 47.69369 | 2.70795 | 27554 ft | 430 kts | 160° |
| 2026-04-24 05:48 | 47.66521 | 2.72179 | 27835 ft | 431 kts | 160° |
| 2026-04-24 05:48 | 47.63661 | 2.73566 | 28109 ft | 433 kts | 160° |
| 2026-04-24 05:48 | 47.60794 | 2.74956 | 28380 ft | 434 kts | 161° |
| 2026-04-24 05:49 | 47.57915 | 2.76346 | 28629 ft | 436 kts | 161° |
| 2026-04-24 05:49 | 47.55026 | 2.77739 | 28891 ft | 437 kts | 161° |
| 2026-04-24 05:49 | 47.52145 | 2.79131 | 29243 ft | 435 kts | 161° |
| 2026-04-24 05:49 | 47.49298 | 2.80513 | 29600 ft | 434 kts | 160° |
| 2026-04-24 05:50 | 47.46429 | 2.81905 | 29948 ft | 434 kts | 161° |
| 2026-04-24 05:50 | 47.43565 | 2.83288 | 30295 ft | 433 kts | 161° |
| 2026-04-24 05:50 | 47.40704 | 2.84661 | 30588 ft | 432 kts | 161° |
| 2026-04-24 05:50 | 47.37843 | 2.86032 | 30871 ft | 432 kts | 161° |
| 2026-04-24 05:51 | 47.34987 | 2.87403 | 31143 ft | 432 kts | 161° |
| 2026-04-24 05:51 | 47.32129 | 2.88780 | 31416 ft | 432 kts | 161° |
| 2026-04-24 05:51 | 47.29273 | 2.90151 | 31678 ft | 432 kts | 161° |
| 2026-04-24 05:51 | 47.26418 | 2.91517 | 31947 ft | 432 kts | 161° |
| 2026-04-24 05:52 | 47.23554 | 2.92884 | 32208 ft | 432 kts | 161° |
| 2026-04-24 05:52 | 47.20693 | 2.94247 | 32480 ft | 432 kts | 161° |
| 2026-04-24 05:52 | 47.17834 | 2.95609 | 32747 ft | 433 kts | 161° |
| 2026-04-24 05:52 | 47.14971 | 2.96974 | 33016 ft | 433 kts | 161° |
| 2026-04-24 05:53 | 47.12105 | 2.98340 | 33272 ft | 433 kts | 161° |
| 2026-04-24 05:53 | 47.09227 | 2.99656 | 33536 ft | 433 kts | 162° |
| 2026-04-24 05:53 | 47.06329 | 3.00888 | 33803 ft | 434 kts | 163° |
| 2026-04-24 05:53 | 47.03420 | 3.02065 | 34065 ft | 434 kts | 163° |
| 2026-04-24 05:54 | 47.00502 | 3.03220 | 34314 ft | 434 kts | 163° |
| 2026-04-24 05:54 | 46.97583 | 3.04371 | 34555 ft | 434 kts | 163° |
| 2026-04-24 05:54 | 46.94665 | 3.05534 | 34775 ft | 434 kts | 163° |
| 2026-04-24 05:54 | 46.91753 | 3.06711 | 35019 ft | 434 kts | 163° |
| 2026-04-24 05:55 | 46.88843 | 3.07899 | 35162 ft | 435 kts | 163° |
| 2026-04-24 05:55 | 46.85915 | 3.09100 | 35195 ft | 439 kts | 163° |
| 2026-04-24 05:55 | 46.79980 | 3.11542 | 35190 ft | 445 kts | 163° |
| 2026-04-24 05:56 | 46.74010 | 3.13993 | 35192 ft | 446 kts | 163° |
| 2026-04-24 05:56 | 46.68021 | 3.16435 | 35189 ft | 447 kts | 163° |
| 2026-04-24 05:57 | 46.62018 | 3.18874 | 35193 ft | 449 kts | 163° |
| 2026-04-24 05:57 | 46.55998 | 3.21306 | 35181 ft | 449 kts | 163° |
| 2026-04-24 05:58 | 46.49966 | 3.23741 | 35179 ft | 450 kts | 164° |
| 2026-04-24 05:58 | 46.43918 | 3.26173 | 35179 ft | 451 kts | 164° |
| 2026-04-24 05:59 | 46.37860 | 3.28602 | 35174 ft | 452 kts | 164° |
| 2026-04-24 05:59 | 46.34911 | 3.30164 | 35171 ft | 451 kts | 152° |
| 2026-04-24 05:59 | 46.32326 | 3.32718 | 35170 ft | 451 kts | 140° |
| 2026-04-24 06:00 | 46.27546 | 3.38602 | 35166 ft | 452 kts | 139° |
| 2026-04-24 06:00 | 46.22800 | 3.44487 | 35167 ft | 453 kts | 139° |
| 2026-04-24 06:01 | 46.18008 | 3.50396 | 35176 ft | 454 kts | 140° |
| 2026-04-24 06:01 | 46.13196 | 3.56295 | 35177 ft | 455 kts | 140° |
| 2026-04-24 06:02 | 46.08368 | 3.62202 | 35180 ft | 456 kts | 140° |
| 2026-04-24 06:02 | 46.03534 | 3.68110 | 35183 ft | 456 kts | 140° |
| 2026-04-24 06:03 | 45.98685 | 3.74027 | 35190 ft | 456 kts | 140° |
| 2026-04-24 06:03 | 45.93847 | 3.79921 | 35193 ft | 456 kts | 140° |
| 2026-04-24 06:04 | 45.89005 | 3.85793 | 35198 ft | 455 kts | 140° |
| 2026-04-24 06:04 | 45.84167 | 3.91644 | 35202 ft | 455 kts | 140° |
| 2026-04-24 06:05 | 45.79328 | 3.97489 | 35201 ft | 455 kts | 140° |
| 2026-04-24 06:05 | 45.74489 | 4.03316 | 35197 ft | 455 kts | 140° |
| 2026-04-24 06:06 | 45.69645 | 4.09139 | 35192 ft | 455 kts | 140° |
| 2026-04-24 06:06 | 45.64797 | 4.14952 | 35188 ft | 455 kts | 140° |
| 2026-04-24 06:07 | 45.59947 | 4.20752 | 35190 ft | 455 kts | 140° |
| 2026-04-24 06:07 | 45.55098 | 4.26538 | 35194 ft | 454 kts | 140° |
| 2026-04-24 06:08 | 45.50253 | 4.32309 | 35227 ft | 453 kts | 140° |
| 2026-04-24 06:08 | 45.45441 | 4.38017 | 35227 ft | 453 kts | 140° |
| 2026-04-24 06:09 | 45.40590 | 4.43756 | 35220 ft | 453 kts | 140° |
| 2026-04-24 06:09 | 45.35744 | 4.49490 | 35209 ft | 453 kts | 140° |
| 2026-04-24 06:10 | 45.30890 | 4.55215 | 35205 ft | 453 kts | 140° |
| 2026-04-24 06:11 | 45.23615 | 4.63786 | 35197 ft | 453 kts | 140° |
| 2026-04-24 06:11 | 45.19557 | 4.68558 | 35199 ft | 452 kts | 140° |
| 2026-04-24 06:12 | 45.14710 | 4.74230 | 35200 ft | 452 kts | 140° |
| 2026-04-24 06:12 | 45.09865 | 4.79887 | 35198 ft | 451 kts | 140° |
| 2026-04-24 06:13 | 45.05016 | 4.85534 | 35188 ft | 451 kts | 140° |
| 2026-04-24 06:13 | 45.00160 | 4.91171 | 35186 ft | 452 kts | 140° |
| 2026-04-24 06:14 | 44.95302 | 4.96805 | 35185 ft | 452 kts | 140° |
| 2026-04-24 06:14 | 44.90444 | 5.02441 | 35184 ft | 452 kts | 140° |
| 2026-04-24 06:15 | 44.85576 | 5.08059 | 35187 ft | 452 kts | 140° |
| 2026-04-24 06:15 | 44.80706 | 5.13665 | 35190 ft | 452 kts | 140° |
| 2026-04-24 06:16 | 44.75834 | 5.19275 | 35185 ft | 453 kts | 140° |
| 2026-04-24 06:16 | 44.70957 | 5.24882 | 35182 ft | 453 kts | 140° |
| 2026-04-24 06:17 | 44.66063 | 5.30484 | 35182 ft | 454 kts | 140° |
| 2026-04-24 06:17 | 44.61162 | 5.36069 | 35181 ft | 454 kts | 140° |
| 2026-04-24 06:18 | 44.56257 | 5.41658 | 35184 ft | 455 kts | 140° |
| 2026-04-24 06:18 | 44.51343 | 5.47250 | 35191 ft | 455 kts | 140° |
| 2026-04-24 06:19 | 44.46420 | 5.52828 | 35199 ft | 455 kts | 140° |
| 2026-04-24 06:19 | 44.41491 | 5.58401 | 35201 ft | 455 kts | 140° |
| 2026-04-24 06:20 | 44.36971 | 5.64547 | 35201 ft | 453 kts | 126° |
| 2026-04-24 06:20 | 44.33423 | 5.71813 | 35202 ft | 453 kts | 123° |
| 2026-04-24 06:21 | 44.29891 | 5.79087 | 35203 ft | 453 kts | 123° |
| 2026-04-24 06:21 | 44.28506 | 5.81922 | 35199 ft | 453 kts | 123° |
| 2026-04-24 06:22 | 44.24960 | 5.89184 | 35198 ft | 453 kts | 123° |
| 2026-04-24 06:22 | 44.21439 | 5.96398 | 35198 ft | 453 kts | 123° |
| 2026-04-24 06:23 | 44.17883 | 6.03651 | 35196 ft | 453 kts | 123° |
| 2026-04-24 06:23 | 44.14324 | 6.10895 | 35202 ft | 453 kts | 123° |
| 2026-04-24 06:24 | 44.10765 | 6.18127 | 35204 ft | 453 kts | 123° |
| 2026-04-24 06:24 | 44.07206 | 6.25349 | 35202 ft | 452 kts | 123° |
| 2026-04-24 06:25 | 44.03640 | 6.32547 | 35205 ft | 452 kts | 123° |
| 2026-04-24 06:25 | 44.00069 | 6.39734 | 35199 ft | 452 kts | 123° |
| 2026-04-24 06:26 | 43.96502 | 6.46907 | 35200 ft | 451 kts | 123° |
| 2026-04-24 06:26 | 43.92933 | 6.54068 | 35202 ft | 451 kts | 123° |
| 2026-04-24 06:27 | 43.89366 | 6.61216 | 35196 ft | 451 kts | 123° |
| 2026-04-24 06:27 | 43.85792 | 6.68351 | 35193 ft | 450 kts | 123° |
| 2026-04-24 06:28 | 43.82213 | 6.75468 | 35193 ft | 450 kts | 123° |
| 2026-04-24 06:28 | 43.78628 | 6.82574 | 35197 ft | 450 kts | 123° |
| 2026-04-24 06:29 | 43.75044 | 6.89672 | 35201 ft | 450 kts | 123° |
| 2026-04-24 06:29 | 43.71364 | 6.96669 | 35200 ft | 451 kts | 129° |
| 2026-04-24 06:30 | 43.67279 | 7.03236 | 35208 ft | 450 kts | 129° |
| 2026-04-24 06:30 | 43.63193 | 7.09786 | 35210 ft | 450 kts | 129° |
| 2026-04-24 06:31 | 43.59102 | 7.16328 | 35209 ft | 450 kts | 129° |
| 2026-04-24 06:31 | 43.55138 | 7.22998 | 34789 ft | 450 kts | 121° |
| 2026-04-24 06:31 | 43.53651 | 7.26752 | 34197 ft | 445 kts | 112° |
| 2026-04-24 06:32 | 43.52405 | 7.30645 | 33519 ft | 444 kts | 112° |
| 2026-04-24 06:32 | 43.51163 | 7.34477 | 32863 ft | 444 kts | 112° |
| 2026-04-24 06:32 | 43.49890 | 7.38361 | 32213 ft | 445 kts | 112° |
| 2026-04-24 06:32 | 43.48606 | 7.42248 | 31579 ft | 447 kts | 112° |
| 2026-04-24 06:33 | 43.47316 | 7.46144 | 30961 ft | 448 kts | 112° |
| 2026-04-24 06:33 | 43.46017 | 7.50055 | 30352 ft | 450 kts | 112° |
| 2026-04-24 06:33 | 43.44744 | 7.53884 | 29677 ft | 451 kts | 112° |
| 2026-04-24 06:33 | 43.43436 | 7.57820 | 28981 ft | 454 kts | 112° |
| 2026-04-24 06:34 | 43.42112 | 7.61808 | 28529 ft | 469 kts | 110° |
| 2026-04-24 06:34 | 43.40723 | 7.66023 | 27851 ft | 498 kts | 110° |
| 2026-04-24 06:34 | 43.39259 | 7.70464 | 27195 ft | 520 kts | 111° |
| 2026-04-24 06:34 | 43.37744 | 7.75026 | 26556 ft | 529 kts | 111° |
| 2026-04-24 06:35 | 43.36199 | 7.79633 | 25929 ft | 532 kts | 111° |
| 2026-04-24 06:35 | 43.34649 | 7.84232 | 25322 ft | 529 kts | 111° |
| 2026-04-24 06:35 | 43.33108 | 7.88795 | 24729 ft | 524 kts | 111° |
| 2026-04-24 06:35 | 43.31582 | 7.93318 | 24139 ft | 519 kts | 111° |
| 2026-04-24 06:36 | 43.30069 | 7.97795 | 23542 ft | 515 kts | 111° |
| 2026-04-24 06:36 | 43.28576 | 8.02224 | 22856 ft | 508 kts | 111° |
| 2026-04-24 06:36 | 43.27101 | 8.06591 | 22188 ft | 500 kts | 111° |
| 2026-04-24 06:36 | 43.25648 | 8.10879 | 21536 ft | 492 kts | 112° |
| 2026-04-24 06:37 | 43.24218 | 8.15098 | 20897 ft | 484 kts | 112° |
| 2026-04-24 06:37 | 43.22826 | 8.19250 | 20272 ft | 475 kts | 111° |
| 2026-04-24 06:37 | 43.21471 | 8.23343 | 19660 ft | 468 kts | 111° |
| 2026-04-24 06:37 | 43.20144 | 8.27374 | 19056 ft | 460 kts | 111° |
| 2026-04-24 06:38 | 43.18845 | 8.31341 | 18466 ft | 453 kts | 111° |
| 2026-04-24 06:38 | 43.17571 | 8.35248 | 17795 ft | 445 kts | 111° |
| 2026-04-24 06:38 | 43.16317 | 8.39098 | 17132 ft | 440 kts | 111° |
| 2026-04-24 06:38 | 43.15077 | 8.42892 | 16485 ft | 434 kts | 111° |
| 2026-04-24 06:39 | 43.13875 | 8.46560 | 15861 ft | 429 kts | 111° |
| 2026-04-24 06:39 | 43.12660 | 8.50268 | 15236 ft | 424 kts | 111° |
| 2026-04-24 06:39 | 43.11458 | 8.53928 | 14624 ft | 420 kts | 111° |
| 2026-04-24 06:39 | 43.10265 | 8.57553 | 14011 ft | 415 kts | 111° |
| 2026-04-24 06:40 | 43.09086 | 8.61129 | 13360 ft | 411 kts | 111° |
| 2026-04-24 06:40 | 43.07916 | 8.64664 | 12702 ft | 405 kts | 111° |
| 2026-04-24 06:40 | 43.06755 | 8.68153 | 12060 ft | 400 kts | 111° |
| 2026-04-24 06:40 | 43.05604 | 8.71585 | 11429 ft | 394 kts | 111° |
| 2026-04-24 06:41 | 43.04465 | 8.74964 | 10810 ft | 388 kts | 111° |
| 2026-04-24 06:41 | 43.03341 | 8.78278 | 10396 ft | 377 kts | 111° |
| 2026-04-24 06:41 | 43.02275 | 8.81391 | 10265 ft | 353 kts | 111° |
| 2026-04-24 06:41 | 43.01266 | 8.84291 | 10123 ft | 323 kts | 111° |
| 2026-04-24 06:42 | 43.00327 | 8.86943 | 9974 ft | 299 kts | 111° |
| 2026-04-24 06:42 | 42.99434 | 8.89435 | 9501 ft | 287 kts | 111° |
| 2026-04-24 06:42 | 42.98564 | 8.91858 | 8874 ft | 282 kts | 111° |
| 2026-04-24 06:42 | 42.97707 | 8.94244 | 8242 ft | 277 kts | 111° |
| 2026-04-24 06:43 | 42.96865 | 8.96585 | 7630 ft | 272 kts | 111° |
| 2026-04-24 06:43 | 42.95908 | 8.98799 | 7018 ft | 273 kts | 128° |
| 2026-04-24 06:43 | 42.94350 | 9.00277 | 6427 ft | 280 kts | 156° |
| 2026-04-24 06:43 | 42.92412 | 9.00616 | 6032 ft | 284 kts | 179° |
| 2026-04-24 06:44 | 42.90441 | 9.00363 | 5614 ft | 284 kts | 183° |
| 2026-04-24 06:44 | 42.88491 | 9.00027 | 5223 ft | 281 kts | 183° |
| 2026-04-24 06:44 | 42.86576 | 8.99554 | 4834 ft | 281 kts | 196° |
| 2026-04-24 06:44 | 42.84859 | 8.98275 | 4400 ft | 283 kts | 211° |
| 2026-04-24 06:45 | 42.83250 | 8.96743 | 3969 ft | 281 kts | 212° |
| 2026-04-24 06:45 | 42.81688 | 8.95191 | 3723 ft | 272 kts | 212° |
| 2026-04-24 06:45 | 42.80204 | 8.93687 | 3595 ft | 260 kts | 213° |
| 2026-04-24 06:45 | 42.78789 | 8.92249 | 3460 ft | 249 kts | 212° |
| 2026-04-24 06:46 | 42.77420 | 8.90844 | 3187 ft | 245 kts | 212° |
| 2026-04-24 06:46 | 42.76068 | 8.89445 | 3005 ft | 243 kts | 212° |
| 2026-04-24 06:46 | 42.74773 | 8.88095 | 3030 ft | 227 kts | 212° |
| 2026-04-24 06:46 | 42.73548 | 8.86798 | 2998 ft | 220 kts | 212° |
| 2026-04-24 06:47 | 42.72348 | 8.85519 | 2991 ft | 217 kts | 213° |
| 2026-04-24 06:47 | 42.71160 | 8.84310 | 2534 ft | 211 kts | 207° |
| 2026-04-24 06:47 | 42.69911 | 8.83294 | 2068 ft | 206 kts | 204° |
| 2026-04-24 06:47 | 42.68672 | 8.82347 | 1988 ft | 197 kts | 204° |
| 2026-04-24 06:48 | 42.67524 | 8.81512 | 2032 ft | 178 kts | 205° |
| 2026-04-24 06:48 | 42.66430 | 8.80826 | 2020 ft | 169 kts | 204° |
| 2026-04-24 06:48 | 42.65420 | 8.80213 | 2027 ft | 152 kts | 204° |
| 2026-04-24 06:48 | 42.64472 | 8.79641 | 2011 ft | 146 kts | 204° |
| 2026-04-24 06:49 | 42.63563 | 8.79110 | 1756 ft | 141 kts | 199° |
| 2026-04-24 06:49 | 42.62624 | 8.78743 | 1520 ft | 139 kts | 194° |
| 2026-04-24 06:49 | 42.61681 | 8.78436 | 1523 ft | 142 kts | 194° |
| 2026-04-24 06:49 | 42.60720 | 8.78135 | 1507 ft | 142 kts | 193° |
| 2026-04-24 06:50 | 42.59755 | 8.77851 | 1513 ft | 142 kts | 191° |
| 2026-04-24 06:50 | 42.58776 | 8.77724 | 1513 ft | 142 kts | 179° |
| 2026-04-24 06:50 | 42.57791 | 8.77816 | 1510 ft | 142 kts | 177° |
| 2026-04-24 06:50 | 42.56803 | 8.77871 | 1510 ft | 142 kts | 181° |
| 2026-04-24 06:51 | 42.55814 | 8.77830 | 1512 ft | 142 kts | 184° |
| 2026-04-24 06:51 | 42.54829 | 8.77763 | 1511 ft | 141 kts | 184° |
| 2026-04-24 06:51 | 42.53855 | 8.77655 | 1520 ft | 140 kts | 187° |
| 2026-04-24 06:51 | 42.52889 | 8.77469 | 1508 ft | 140 kts | 189° |
| 2026-04-24 06:52 | 42.51930 | 8.77230 | 1494 ft | 140 kts | 192° |
| 2026-04-24 06:52 | 42.50972 | 8.76997 | 1415 ft | 142 kts | 181° |
| 2026-04-24 06:52 | 42.50089 | 8.77459 | 1206 ft | 140 kts | 130° |
| 2026-04-24 06:52 | 42.49902 | 8.78730 | 1032 ft | 146 kts | 77° |
| 2026-04-24 06:53 | 42.50478 | 8.79808 | 784 ft | 146 kts | 17° |
| 2026-04-24 06:53 | 42.51421 | 8.79503 | 544 ft | 149 kts | 330° |
| 2026-04-24 06:53 | 42.52419 | 8.79268 | 232 ft | 146 kts | 1° |
| 2026-04-24 06:53 | 42.53305 | 8.79277 | 126 ft | 91 kts | 0° |
| 2026-04-24 06:54 | 42.53649 | 8.79276 | 108 ft | 16 kts | 0° |
| 2026-04-24 06:54 | 42.53664 | 8.79316 | 107 ft | 5 kts | 155° |
| 2026-04-24 06:54 | 42.53617 | 8.79308 | 109 ft | 8 kts | 184° |
| 2026-04-24 06:54 | 42.53549 | 8.79301 | 111 ft | 16 kts | 184° |
| 2026-04-24 06:55 | 42.53444 | 8.79300 | 115 ft | 14 kts | 179° |
| 2026-04-24 06:55 | 42.53365 | 8.79298 | 121 ft | 9 kts | 186° |
| 2026-04-24 06:55 | 42.53242 | 8.79294 | 127 ft | 32 kts | 180° |
| 2026-04-24 06:55 | 42.53025 | 8.79299 | 145 ft | 29 kts | 180° |
| 2026-04-24 06:56 | 42.52840 | 8.79292 | 157 ft | 25 kts | 176° |
| 2026-04-24 06:56 | 42.52729 | 8.79295 | 164 ft | 23 kts | 180° |
| 2026-04-24 06:56 | 42.52584 | 8.79298 | 175 ft | 19 kts | 179° |
| 2026-04-24 06:56 | 42.52444 | 8.79258 | 181 ft | 15 kts | 233° |
| 2026-04-24 06:57 | 42.52440 | 8.79155 | 181 ft | 0 kts | 293° |
| 2026-04-24 06:57 | 42.52443 | 8.79144 | 181 ft | 4 kts | 293° |
| 2026-04-24 06:57 | 42.52455 | 8.79115 | 181 ft | 4 kts | 298° |
| 2026-04-24 06:57 | 42.52469 | 8.79082 | 180 ft | 2 kts | 301° |
| 2026-04-24 06:58 | 42.52470 | 8.79081 | 180 ft | 0 kts | 301° |